9WI6 weather

Kitty Hawk Estates Airport
Polar, Wisconsin, United States

Public forecast

Using degrees Fahrenheit for public forecast. Weather courtesy of forecast.io.

METAR (pilot weather report)

Closest report is Langlade County Airport, 5.0 nm (9.2 km) NW. Retrieved 2019/08/25 06:35 UTC (0 seconds ago):

KAIG 250635Z AUTO 11003KT 10SM CLR 10/10 A3024 RMK AO2 T00970096

TAF (pilot weather forecast)

Closest forecast is Wausau Downtown Airport, 28.0 nm (51.9 km) WSW. Retrieved 2019/08/25 06:22 UTC (0 seconds ago):

TAF KAUW 250520Z 2506/2606 12003KT P6SM SCT200 FM251500 14009KT P6SM SCT030 SCT150 FM251800 14010KT P6SM BKN035 FM260100 13007KT P6SM SCT035 BKN100